sensor_id;sensor_type;location;lat;lon;timestamp;pressure;altitude;pressure_sealevel;temperature;humidity
65800;BME280;52544;48.116;11.660;2022-12-29T00:01:25;95490.16;;;3.22;81.87
65800;BME280;52544;48.116;11.660;2022-12-29T00:03:51;95486.94;;;3.33;81.12
65800;BME280;52544;48.116;11.660;2022-12-29T00:06:16;95480.09;;;3.31;80.87
65800;BME280;52544;48.116;11.660;2022-12-29T00:08:41;95478.25;;;3.33;80.44
65800;BME280;52544;48.116;11.660;2022-12-29T00:11:19;95483.47;;;3.33;80.42
65800;BME280;52544;48.116;11.660;2022-12-29T00:13:45;95476.31;;;3.36;79.96
65800;BME280;52544;48.116;11.660;2022-12-29T00:16:32;95480.50;;;3.39;79.42
65800;BME280;52544;48.116;11.660;2022-12-29T00:18:58;95481.25;;;3.41;79.02
65800;BME280;52544;48.116;11.660;2022-12-29T00:21:24;95477.59;;;3.43;79.06
65800;BME280;52544;48.116;11.660;2022-12-29T00:24:20;95466.47;;;3.40;78.84
65800;BME280;52544;48.116;11.660;2022-12-29T00:26:55;95472.31;;;3.45;78.62
65800;BME280;52544;48.116;11.660;2022-12-29T00:29:40;95466.41;;;3.41;78.89
65800;BME280;52544;48.116;11.660;2022-12-29T00:32:24;95468.53;;;3.35;79.45
65800;BME280;52544;48.116;11.660;2022-12-29T00:35:09;95464.31;;;3.32;79.87
65800;BME280;52544;48.116;11.660;2022-12-29T00:37:40;95457.31;;;3.33;79.56
65800;BME280;52544;48.116;11.660;2022-12-29T00:40:25;95465.16;;;3.33;79.72
65800;BME280;52544;48.116;11.660;2022-12-29T00:43:09;95462.63;;;3.31;79.39
65800;BME280;52544;48.116;11.660;2022-12-29T00:45:52;95462.44;;;3.34;78.53
65800;BME280;52544;48.116;11.660;2022-12-29T00:48:18;95465.91;;;3.35;78.73
65800;BME280;52544;48.116;11.660;2022-12-29T00:51:02;95464.13;;;3.35;78.06
65800;BME280;52544;48.116;11.660;2022-12-29T00:53:27;95465.72;;;3.38;77.46
65800;BME280;52544;48.116;11.660;2022-12-29T00:55:53;95457.50;;;3.44;77.48
65800;BME280;52544;48.116;11.660;2022-12-29T00:58:18;95466.28;;;3.43;77.25
65800;BME280;52544;48.116;11.660;2022-12-29T01:00:43;95462.94;;;3.41;77.02
65800;BME280;52544;48.116;11.660;2022-12-29T01:03:09;95458.63;;;3.40;76.90
65800;BME280;52544;48.116;11.660;2022-12-29T01:05:37;95467.41;;;3.39;76.69
65800;BME280;52544;48.116;11.660;2022-12-29T01:08:03;95468.34;;;3.38;76.30
65800;BME280;52544;48.116;11.660;2022-12-29T01:10:29;95471.69;;;3.40;76.62
65800;BME280;52544;48.116;11.660;2022-12-29T01:12:54;95462.94;;;3.41;76.21
65800;BME280;52544;48.116;11.660;2022-12-29T01:15:19;95463.13;;;3.38;76.32
65800;BME280;52544;48.116;11.660;2022-12-29T01:17:45;95467.41;;;3.39;75.91
65800;BME280;52544;48.116;11.660;2022-12-29T01:20:11;95467.34;;;3.40;75.87
65800;BME280;52544;48.116;11.660;2022-12-29T01:22:37;95466.13;;;3.46;75.64
65800;BME280;52544;48.116;11.660;2022-12-29T01:25:03;95471.91;;;3.51;75.41
65800;BME280;52544;48.116;11.660;2022-12-29T01:27:29;95470.06;;;3.53;74.79
65800;BME280;52544;48.116;11.660;2022-12-29T01:29:54;95469.47;;;3.48;74.94
65800;BME280;52544;48.116;11.660;2022-12-29T01:32:20;95467.63;;;3.50;74.60
65800;BME280;52544;48.116;11.660;2022-12-29T01:34:45;95464.19;;;3.49;74.87
65800;BME280;52544;48.116;11.660;2022-12-29T01:37:11;95469.47;;;3.48;74.90
65800;BME280;52544;48.116;11.660;2022-12-29T01:39:36;95474.31;;;3.40;75.08
65800;BME280;52544;48.116;11.660;2022-12-29T01:42:01;95480.16;;;3.45;74.94
65800;BME280;52544;48.116;11.660;2022-12-29T01:44:53;95468.75;;;3.46;75.40
65800;BME280;52544;48.116;11.660;2022-12-29T01:47:30;95467.81;;;3.47;75.00
65800;BME280;52544;48.116;11.660;2022-12-29T01:49:59;95475.47;;;3.50;74.35
65800;BME280;52544;48.116;11.660;2022-12-29T01:52:29;95465.75;;;3.52;74.17
65800;BME280;52544;48.116;11.660;2022-12-29T01:54:56;95465.75;;;3.52;74.36
65800;BME280;52544;48.116;11.660;2022-12-29T01:57:27;95469.03;;;3.56;73.98
65800;BME280;52544;48.116;11.660;2022-12-29T02:00:00;95467.06;;;3.59;73.63
65800;BME280;52544;48.116;11.660;2022-12-29T02:02:27;95468.03;;;3.58;73.46
65800;BME280;52544;48.116;11.660;2022-12-29T02:04:54;95463.44;;;3.62;73.01
65800;BME280;52544;48.116;11.660;2022-12-29T02:07:24;95466.06;;;3.62;72.69
65800;BME280;52544;48.116;11.660;2022-12-29T02:09:52;95466.91;;;3.62;72.70
65800;BME280;52544;48.116;11.660;2022-12-29T02:12:20;95463.34;;;3.63;73.06
65800;BME280;52544;48.116;11.660;2022-12-29T02:14:48;95457.38;;;3.61;72.87
65800;BME280;52544;48.116;11.660;2022-12-29T02:25:52;95453.25;;;3.57;72.95
65800;BME280;52544;48.116;11.660;2022-12-29T02:44:46;95469.69;;;3.73;70.64
65800;BME280;52544;48.116;11.660;2022-12-29T02:47:28;95462.50;;;3.77;70.65
65800;BME280;52544;48.116;11.660;2022-12-29T02:50:43;95454.66;;;3.77;70.41
65800;BME280;52544;48.116;11.660;2022-12-29T02:53:15;95459.97;;;3.90;68.64
65800;BME280;52544;48.116;11.660;2022-12-29T02:55:49;95443.91;;;3.96;68.39
65800;BME280;52544;48.116;11.660;2022-12-29T02:58:18;95451.00;;;3.94;68.02
65800;BME280;52544;48.116;11.660;2022-12-29T03:03:45;95448.03;;;4.00;67.56
65800;BME280;52544;48.116;11.660;2022-12-29T03:09:23;95437.94;;;4.08;66.82
65800;BME280;52544;48.116;11.660;2022-12-29T03:12:00;95433.97;;;4.15;65.60
65800;BME280;52544;48.116;11.660;2022-12-29T03:17:40;95431.28;;;4.17;65.37
65800;BME280;52544;48.116;11.660;2022-12-29T03:20:16;95434.16;;;4.26;65.15
65800;BME280;52544;48.116;11.660;2022-12-29T03:22:44;95428.16;;;4.24;65.39
65800;BME280;52544;48.116;11.660;2022-12-29T03:25:20;95422.72;;;4.28;65.31
65800;BME280;52544;48.116;11.660;2022-12-29T03:27:51;95416.00;;;4.23;65.38
65800;BME280;52544;48.116;11.660;2022-12-29T03:30:18;95410.56;;;4.26;65.17
65800;BME280;52544;48.116;11.660;2022-12-29T03:32:47;95406.28;;;4.25;65.27
65800;BME280;52544;48.116;11.660;2022-12-29T03:35:17;95408.91;;;4.25;65.46
65800;BME280;52544;48.116;11.660;2022-12-29T03:37:54;95399.91;;;4.30;64.34
65800;BME280;52544;48.116;11.660;2022-12-29T03:40:22;95405.75;;;4.33;64.27
65800;BME280;52544;48.116;11.660;2022-12-29T03:42:49;95403.72;;;4.38;64.01
65800;BME280;52544;48.116;11.660;2022-12-29T03:45:14;95406.03;;;4.43;63.44
65800;BME280;52544;48.116;11.660;2022-12-29T03:47:40;95411.06;;;4.46;63.53
65800;BME280;52544;48.116;11.660;2022-12-29T03:50:06;95408.25;;;4.49;63.25
65800;BME280;52544;48.116;11.660;2022-12-29T03:52:33;95406.75;;;4.59;62.39
65800;BME280;52544;48.116;11.660;2022-12-29T03:54:59;95406.88;;;4.70;61.34
65800;BME280;52544;48.116;11.660;2022-12-29T03:57:24;95399.00;;;4.70;61.43
65800;BME280;52544;48.116;11.660;2022-12-29T03:59:49;95409.09;;;4.76;61.63
65800;BME280;52544;48.116;11.660;2022-12-29T04:02:15;95399.47;;;4.77;61.25
65800;BME280;52544;48.116;11.660;2022-12-29T04:04:40;95405.53;;;4.78;60.76
65800;BME280;52544;48.116;11.660;2022-12-29T04:07:06;95404.22;;;4.85;60.71
65800;BME280;52544;48.116;11.660;2022-12-29T04:09:31;95405.78;;;5.00;59.89
65800;BME280;52544;48.116;11.660;2022-12-29T04:11:57;95403.50;;;5.08;59.19
65800;BME280;52544;48.116;11.660;2022-12-29T04:14:22;95408.75;;;5.08;59.96
65800;BME280;52544;48.116;11.660;2022-12-29T04:16:47;95397.53;;;5.06;59.76
65800;BME280;52544;48.116;11.660;2022-12-29T04:19:13;95403.72;;;5.05;59.73
65800;BME280;52544;48.116;11.660;2022-12-29T04:21:38;95396.06;;;5.02;60.14
65800;BME280;52544;48.116;11.660;2022-12-29T04:24:05;95397.44;;;5.08;59.82
65800;BME280;52544;48.116;11.660;2022-12-29T04:26:32;95403.50;;;5.08;60.33
65800;BME280;52544;48.116;11.660;2022-12-29T04:28:57;95401.63;;;5.10;60.43
65800;BME280;52544;48.116;11.660;2022-12-29T04:31:23;95400.88;;;5.08;60.38
65800;BME280;52544;48.116;11.660;2022-12-29T04:33:48;95401.22;;;5.16;60.20
65800;BME280;52544;48.116;11.660;2022-12-29T04:36:14;95402.47;;;5.11;60.07
65800;BME280;52544;48.116;11.660;2022-12-29T04:38:40;95393.66;;;5.12;60.26
65800;BME280;52544;48.116;11.660;2022-12-29T04:41:05;95402.16;;;5.15;60.00
65800;BME280;52544;48.116;11.660;2022-12-29T04:43:30;95394.09;;;5.18;59.62
65800;BME280;52544;48.116;11.660;2022-12-29T04:45:56;95390.34;;;5.22;59.41
65800;BME280;52544;48.116;11.660;2022-12-29T04:48:21;95385.91;;;5.23;59.49
65800;BME280;52544;48.116;11.660;2022-12-29T04:50:48;95382.22;;;5.25;59.17
65800;BME280;52544;48.116;11.660;2022-12-29T04:53:15;95392.41;;;5.30;59.20
65800;BME280;52544;48.116;11.660;2022-12-29T04:55:40;95381.09;;;5.30;59.53
65800;BME280;52544;48.116;11.660;2022-12-29T04:58:06;95385.38;;;5.31;59.78
65800;BME280;52544;48.116;11.660;2022-12-29T05:00:32;95379.22;;;5.32;59.87
65800;BME280;52544;48.116;11.660;2022-12-29T05:02:57;95375.00;;;5.29;60.36
65800;BME280;52544;48.116;11.660;2022-12-29T05:05:23;95376.25;;;5.23;61.24
65800;BME280;52544;48.116;11.660;2022-12-29T05:07:48;95382.16;;;5.27;60.97
65800;BME280;52544;48.116;11.660;2022-12-29T05:10:14;95386.31;;;5.30;60.89
65800;BME280;52544;48.116;11.660;2022-12-29T05:12:39;95385.94;;;5.36;59.78
65800;BME280;52544;48.116;11.660;2022-12-29T05:15:06;95386.53;;;5.39;59.47
65800;BME280;52544;48.116;11.660;2022-12-29T05:17:32;95382.88;;;5.42;59.52
65800;BME280;52544;48.116;11.660;2022-12-29T05:19:58;95386.34;;;5.42;59.76
65800;BME280;52544;48.116;11.660;2022-12-29T05:22:24;95385.31;;;5.45;59.49
65800;BME280;52544;48.116;11.660;2022-12-29T05:24:49;95390.56;;;5.45;59.39
65800;BME280;52544;48.116;11.660;2022-12-29T05:27:15;95392.97;;;5.48;59.38
65800;BME280;52544;48.116;11.660;2022-12-29T05:29:40;95393.06;;;5.46;59.45
65800;BME280;52544;48.116;11.660;2022-12-29T05:32:06;95392.34;;;5.57;58.50
65800;BME280;52544;48.116;11.660;2022-12-29T05:34:31;95389.81;;;5.56;58.48
65800;BME280;52544;48.116;11.660;2022-12-29T05:36:57;95393.25;;;5.56;58.94
65800;BME280;52544;48.116;11.660;2022-12-29T05:39:22;95394.66;;;5.62;58.22
65800;BME280;52544;48.116;11.660;2022-12-29T05:41:48;95389.06;;;5.66;57.91
65800;BME280;52544;48.116;11.660;2022-12-29T05:44:13;95396.75;;;5.69;57.75
65800;BME280;52544;48.116;11.660;2022-12-29T05:46:39;95399.13;;;5.72;58.01
65800;BME280;52544;48.116;11.660;2022-12-29T05:49:05;95385.94;;;5.74;57.95
65800;BME280;52544;48.116;11.660;2022-12-29T05:51:30;95390.63;;;5.69;58.35
65800;BME280;52544;48.116;11.660;2022-12-29T05:53:56;95386.44;;;5.66;58.75
65800;BME280;52544;48.116;11.660;2022-12-29T05:56:21;95385.94;;;5.61;58.75
65800;BME280;52544;48.116;11.660;2022-12-29T05:58:47;95386.78;;;5.62;58.93
65800;BME280;52544;48.116;11.660;2022-12-29T06:01:12;95386.25;;;5.69;58.97
65800;BME280;52544;48.116;11.660;2022-12-29T06:03:37;95386.84;;;5.60;59.57
65800;BME280;52544;48.116;11.660;2022-12-29T06:06:03;95388.13;;;5.55;60.06
65800;BME280;52544;48.116;11.660;2022-12-29T06:08:28;95394.53;;;5.50;60.56
65800;BME280;52544;48.116;11.660;2022-12-29T06:10:54;95395.69;;;5.46;61.31
65800;BME280;52544;48.116;11.660;2022-12-29T06:13:19;95386.78;;;5.49;60.18
65800;BME280;52544;48.116;11.660;2022-12-29T06:15:45;95394.53;;;5.50;60.25
65800;BME280;52544;48.116;11.660;2022-12-29T06:18:10;95390.88;;;5.53;61.39
65800;BME280;52544;48.116;11.660;2022-12-29T06:20:36;95379.94;;;5.46;61.23
65800;BME280;52544;48.116;11.660;2022-12-29T06:23:01;95378.16;;;5.47;61.05
65800;BME280;52544;48.116;11.660;2022-12-29T06:25:26;95389.28;;;5.50;60.57
65800;BME280;52544;48.116;11.660;2022-12-29T06:27:53;95384.03;;;5.50;60.26
65800;BME280;52544;48.116;11.660;2022-12-29T06:30:18;95388.31;;;5.51;59.92
65800;BME280;52544;48.116;11.660;2022-12-29T06:32:44;95397.16;;;5.50;60.25
65800;BME280;52544;48.116;11.660;2022-12-29T06:35:09;95392.03;;;5.49;60.25
65800;BME280;52544;48.116;11.660;2022-12-29T06:37:35;95397.34;;;5.47;60.86
65800;BME280;52544;48.116;11.660;2022-12-29T06:40:00;95383.63;;;5.44;61.45
65800;BME280;52544;48.116;11.660;2022-12-29T06:42:26;95382.88;;;5.42;61.40
65800;BME280;52544;48.116;11.660;2022-12-29T06:44:51;95388.13;;;5.42;61.13
65800;BME280;52544;48.116;11.660;2022-12-29T06:47:17;95389.72;;;5.44;60.71
65800;BME280;52544;48.116;11.660;2022-12-29T06:49:44;95393.19;;;5.45;61.24
65800;BME280;52544;48.116;11.660;2022-12-29T06:52:10;95392.84;;;5.49;60.66
65800;BME280;52544;48.116;11.660;2022-12-29T06:54:35;95398.09;;;5.49;60.74
65800;BME280;52544;48.116;11.660;2022-12-29T06:57:01;95389.91;;;5.54;60.27
65800;BME280;52544;48.116;11.660;2022-12-29T06:59:26;95399.56;;;5.54;60.69
65800;BME280;52544;48.116;11.660;2022-12-29T07:01:52;95400.41;;;5.54;60.02
65800;BME280;52544;48.116;11.660;2022-12-29T07:04:17;95406.38;;;5.56;59.95
65800;BME280;52544;48.116;11.660;2022-12-29T07:06:43;95410.72;;;5.57;59.86
65800;BME280;52544;48.116;11.660;2022-12-29T07:09:09;95409.66;;;5.60;59.79
65800;BME280;52544;48.116;11.660;2022-12-29T07:11:35;95413.03;;;5.62;59.41
65800;BME280;52544;48.116;11.660;2022-12-29T07:14:01;95407.34;;;5.68;58.83
65800;BME280;52544;48.116;11.660;2022-12-29T07:16:27;95407.97;;;5.71;58.70
65800;BME280;52544;48.116;11.660;2022-12-29T07:18:54;95414.91;;;5.72;59.30
65800;BME280;52544;48.116;11.660;2022-12-29T07:21:20;95426.34;;;5.71;58.70
65800;BME280;52544;48.116;11.660;2022-12-29T07:23:45;95428.97;;;5.71;58.89
65800;BME280;52544;48.116;11.660;2022-12-29T07:26:12;95422.78;;;5.72;58.76
65800;BME280;52544;48.116;11.660;2022-12-29T07:28:38;95427.19;;;5.72;58.84
65800;BME280;52544;48.116;11.660;2022-12-29T07:31:04;95432.34;;;5.73;59.25
65800;BME280;52544;48.116;11.660;2022-12-29T07:33:30;95437.38;;;5.76;58.91
65800;BME280;52544;48.116;11.660;2022-12-29T07:35:56;95441.91;;;5.74;59.17
65800;BME280;52544;48.116;11.660;2022-12-29T07:38:22;95441.66;;;5.77;58.92
65800;BME280;52544;48.116;11.660;2022-12-29T07:40:47;95438.31;;;5.75;59.34
65800;BME280;52544;48.116;11.660;2022-12-29T07:43:13;95437.38;;;5.76;59.02
65800;BME280;52544;48.116;11.660;2022-12-29T07:45:38;95442.63;;;5.76;59.38
65800;BME280;52544;48.116;11.660;2022-12-29T07:48:04;95440.94;;;5.75;59.17
65800;BME280;52544;48.116;11.660;2022-12-29T07:50:35;95444.53;;;5.74;59.08
65800;BME280;52544;48.116;11.660;2022-12-29T07:53:01;95450.41;;;5.78;58.91
65800;BME280;52544;48.116;11.660;2022-12-29T07:55:27;95447.88;;;5.76;58.74
65800;BME280;52544;48.116;11.660;2022-12-29T07:57:53;95442.41;;;5.80;58.57
65800;BME280;52544;48.116;11.660;2022-12-29T08:00:19;95442.41;;;5.80;58.46
65800;BME280;52544;48.116;11.660;2022-12-29T08:02:44;95433.59;;;5.81;58.81
65800;BME280;52544;48.116;11.660;2022-12-29T08:05:09;95440.31;;;5.85;59.57
65800;BME280;52544;48.116;11.660;2022-12-29T08:07:35;95445.16;;;5.91;59.30
65800;BME280;52544;48.116;11.660;2022-12-29T08:10:00;95447.81;;;6.04;59.11
65800;BME280;52544;48.116;11.660;2022-12-29T08:12:26;95448.31;;;6.09;58.86
65800;BME280;52544;48.116;11.660;2022-12-29T08:14:52;95446.22;;;6.14;58.84
65800;BME280;52544;48.116;11.660;2022-12-29T08:17:17;95453.75;;;6.18;58.97
65800;BME280;52544;48.116;11.660;2022-12-29T08:19:42;95452.16;;;6.29;58.84
65800;BME280;52544;48.116;11.660;2022-12-29T08:22:08;95452.91;;;6.31;58.69
65800;BME280;52544;48.116;11.660;2022-12-29T08:24:33;95447.19;;;6.37;58.92
65800;BME280;52544;48.116;11.660;2022-12-29T08:26:59;95449.41;;;6.43;58.75
65800;BME280;52544;48.116;11.660;2022-12-29T08:29:24;95453.72;;;6.44;58.28
65800;BME280;52544;48.116;11.660;2022-12-29T08:31:49;95451.59;;;6.49;57.77
65800;BME280;52544;48.116;11.660;2022-12-29T08:34:15;95456.09;;;6.60;57.23
65800;BME280;52544;48.116;11.660;2022-12-29T08:36:40;95445.47;;;6.61;56.36
65800;BME280;52544;48.116;11.660;2022-12-29T08:39:06;95441.88;;;6.62;57.35
65800;BME280;52544;48.116;11.660;2022-12-29T08:41:31;95451.00;;;6.69;57.24
65800;BME280;52544;48.116;11.660;2022-12-29T08:43:56;95452.00;;;6.80;56.55
65800;BME280;52544;48.116;11.660;2022-12-29T08:46:22;95451.47;;;6.87;56.14
65800;BME280;52544;48.116;11.660;2022-12-29T08:48:47;95448.56;;;7.03;55.05
65800;BME280;52544;48.116;11.660;2022-12-29T08:51:13;95452.44;;;7.21;54.93
65800;BME280;52544;48.116;11.660;2022-12-29T08:53:38;95451.06;;;7.29;54.36
65800;BME280;52544;48.116;11.660;2022-12-29T08:56:04;95457.47;;;7.48;52.72
65800;BME280;52544;48.116;11.660;2022-12-29T08:58:30;95452.03;;;7.39;52.93
65800;BME280;52544;48.116;11.660;2022-12-29T09:00:57;95451.81;;;7.42;53.19
65800;BME280;52544;48.116;11.660;2022-12-29T09:03:23;95458.03;;;7.41;53.20
65800;BME280;52544;48.116;11.660;2022-12-29T09:05:51;95455.41;;;7.41;53.26
65800;BME280;52544;48.116;11.660;2022-12-29T09:08:17;95454.00;;;7.48;53.20
65800;BME280;52544;48.116;11.660;2022-12-29T09:10:43;95464.09;;;7.65;53.19
65800;BME280;52544;48.116;11.660;2022-12-29T09:13:09;95460.03;;;7.72;53.16
65800;BME280;52544;48.116;11.660;2022-12-29T09:15:34;95461.25;;;7.80;52.03
65800;BME280;52544;48.116;11.660;2022-12-29T09:17:59;95469.03;;;7.81;51.66
65800;BME280;52544;48.116;11.660;2022-12-29T09:20:25;95465.94;;;7.98;50.97
65800;BME280;52544;48.116;11.660;2022-12-29T09:22:50;95460.34;;;8.03;51.16
65800;BME280;52544;48.116;11.660;2022-12-29T09:25:16;95467.63;;;8.11;51.99
65800;BME280;52544;48.116;11.660;2022-12-29T09:27:41;95469.31;;;8.23;50.87
65800;BME280;52544;48.116;11.660;2022-12-29T09:30:10;95467.06;;;8.30;50.69
65800;BME280;52544;48.116;11.660;2022-12-29T09:32:36;95472.59;;;8.38;50.33
65800;BME280;52544;48.116;11.660;2022-12-29T09:35:01;95476.28;;;8.35;50.54
65800;BME280;52544;48.116;11.660;2022-12-29T09:37:27;95468.50;;;8.45;50.59
65800;BME280;52544;48.116;11.660;2022-12-29T09:39:53;95469.19;;;8.36;50.89
65800;BME280;52544;48.116;11.660;2022-12-29T09:42:23;95468.75;;;8.42;50.45
65800;BME280;52544;48.116;11.660;2022-12-29T09:47:22;95457.69;;;8.70;50.24
65800;BME280;52544;48.116;11.660;2022-12-29T09:49:56;95455.72;;;8.95;50.25
65800;BME280;52544;48.116;11.660;2022-12-29T09:52:42;95448.19;;;9.22;50.29
65800;BME280;52544;48.116;11.660;2022-12-29T09:55:13;95437.06;;;9.19;49.38
65800;BME280;52544;48.116;11.660;2022-12-29T09:57:54;95433.75;;;9.06;49.48
65800;BME280;52544;48.116;11.660;2022-12-29T10:00:27;95435.53;;;9.05;49.34
65800;BME280;52544;48.116;11.660;2022-12-29T10:03:20;95429.53;;;9.03;48.98
65800;BME280;52544;48.116;11.660;2022-12-29T10:08:37;95421.47;;;9.05;49.15
65800;BME280;52544;48.116;11.660;2022-12-29T10:17:33;95414.19;;;9.29;44.64
65800;BME280;52544;48.116;11.660;2022-12-29T10:20:31;95412.88;;;9.35;44.70
65800;BME280;52544;48.116;11.660;2022-12-29T10:25:41;95405.78;;;9.35;44.46
65800;BME280;52544;48.116;11.660;2022-12-29T10:28:34;95409.16;;;9.47;43.92
65800;BME280;52544;48.116;11.660;2022-12-29T10:31:04;95406.41;;;9.48;43.72
65800;BME280;52544;48.116;11.660;2022-12-29T10:33:37;95412.00;;;9.55;43.49
65800;BME280;52544;48.116;11.660;2022-12-29T10:36:13;95425.81;;;9.59;43.29
65800;BME280;52544;48.116;11.660;2022-12-29T10:38:47;95422.19;;;9.60;43.54
65800;BME280;52544;48.116;11.660;2022-12-29T10:41:38;95426.06;;;9.76;42.29
65800;BME280;52544;48.116;11.660;2022-12-29T10:44:09;95412.53;;;9.91;41.81
65800;BME280;52544;48.116;11.660;2022-12-29T10:46:37;95410.56;;;9.93;42.39
65800;BME280;52544;48.116;11.660;2022-12-29T10:49:05;95407.53;;;9.97;42.13
65800;BME280;52544;48.116;11.660;2022-12-29T10:51:36;95398.16;;;10.14;41.33
65800;BME280;52544;48.116;11.660;2022-12-29T10:56:50;95385.47;;;10.39;41.45
65800;BME280;52544;48.116;11.660;2022-12-29T10:59:26;95381.19;;;10.47;41.70
65800;BME280;52544;48.116;11.660;2022-12-29T11:05:05;95368.69;;;10.69;40.54
65800;BME280;52544;48.116;11.660;2022-12-29T11:07:34;95370.25;;;10.91;39.84
65800;BME280;52544;48.116;11.660;2022-12-29T11:10:20;95381.13;;;11.26;39.93
65800;BME280;52544;48.116;11.660;2022-12-29T11:13:04;95363.81;;;11.42;39.00
65800;BME280;52544;48.116;11.660;2022-12-29T11:20:44;95363.63;;;11.92;37.53
65800;BME280;52544;48.116;11.660;2022-12-29T11:26:20;95353.53;;;12.33;37.00
65800;BME280;52544;48.116;11.660;2022-12-29T11:28:49;95333.63;;;12.46;37.75
65800;BME280;52544;48.116;11.660;2022-12-29T11:31:29;95337.88;;;12.57;36.80
65800;BME280;52544;48.116;11.660;2022-12-29T11:33:54;95344.19;;;12.56;36.10
65800;BME280;52544;48.116;11.660;2022-12-29T11:36:22;95343.38;;;12.73;36.03
65800;BME280;52544;48.116;11.660;2022-12-29T11:38:51;95335.19;;;12.85;36.11
65800;BME280;52544;48.116;11.660;2022-12-29T11:41:25;95350.59;;;12.99;35.79
65800;BME280;52544;48.116;11.660;2022-12-29T11:43:52;95335.44;;;13.09;35.35
65800;BME280;52544;48.116;11.660;2022-12-29T11:46:24;95336.97;;;13.30;35.26
65800;BME280;52544;48.116;11.660;2022-12-29T11:48:50;95330.34;;;13.34;34.97
65800;BME280;52544;48.116;11.660;2022-12-29T11:51:26;95326.25;;;13.39;34.94
65800;BME280;52544;48.116;11.660;2022-12-29T11:54:00;95332.47;;;13.48;34.52
65800;BME280;52544;48.116;11.660;2022-12-29T11:56:36;95322.88;;;13.55;33.66
65800;BME280;52544;48.116;11.660;2022-12-29T12:01:56;95333.72;;;13.62;34.14
65800;BME280;52544;48.116;11.660;2022-12-29T12:04:29;95328.63;;;13.68;34.39
65800;BME280;52544;48.116;11.660;2022-12-29T12:07:04;95327.94;;;13.66;33.67
65800;BME280;52544;48.116;11.660;2022-12-29T12:09:43;95339.81;;;13.54;33.27
65800;BME280;52544;48.116;11.660;2022-12-29T12:12:39;95334.13;;;13.49;33.33
65800;BME280;52544;48.116;11.660;2022-12-29T12:15:13;95333.47;;;13.47;33.53
65800;BME280;52544;48.116;11.660;2022-12-29T12:17:53;95326.56;;;13.62;33.29
65800;BME280;52544;48.116;11.660;2022-12-29T12:20:32;95327.81;;;13.50;33.72
65800;BME280;52544;48.116;11.660;2022-12-29T12:23:22;95320.16;;;13.47;34.02
65800;BME280;52544;48.116;11.660;2022-12-29T12:26:10;95314.16;;;13.45;34.43
65800;BME280;52544;48.116;11.660;2022-12-29T12:28:45;95310.50;;;13.64;34.29
65800;BME280;52544;48.116;11.660;2022-12-29T12:31:23;95308.91;;;13.79;34.41
65800;BME280;52544;48.116;11.660;2022-12-29T12:33:58;95296.59;;;13.78;34.29
65800;BME280;52544;48.116;11.660;2022-12-29T12:39:34;95285.13;;;13.78;35.32
65800;BME280;52544;48.116;11.660;2022-12-29T12:48:08;95296.84;;;13.67;35.46
65800;BME280;52544;48.116;11.660;2022-12-29T12:51:14;95287.38;;;13.64;36.01
65800;BME280;52544;48.116;11.660;2022-12-29T12:54:09;95290.09;;;13.72;36.08
65800;BME280;52544;48.116;11.660;2022-12-29T12:56:57;95288.16;;;13.83;35.94
65800;BME280;52544;48.116;11.660;2022-12-29T13:17:21;95288.91;;;13.05;38.63
65800;BME280;52544;48.116;11.660;2022-12-29T13:20:06;95285.50;;;12.95;38.76
65800;BME280;52544;48.116;11.660;2022-12-29T13:22:49;95285.28;;;12.88;39.42
65800;BME280;52544;48.116;11.660;2022-12-29T13:25:31;95282.75;;;12.69;39.25
65800;BME280;52544;48.116;11.660;2022-12-29T13:30:36;95281.56;;;12.63;39.83
65800;BME280;52544;48.116;11.660;2022-12-29T13:33:33;95277.75;;;12.48;40.36
65800;BME280;52544;48.116;11.660;2022-12-29T13:38:39;95285.69;;;12.48;40.16
65800;BME280;52544;48.116;11.660;2022-12-29T13:41:25;95277.19;;;12.44;39.85
65800;BME280;52544;48.116;11.660;2022-12-29T13:43:53;95279.38;;;12.31;40.35
65800;BME280;52544;48.116;11.660;2022-12-29T13:46:33;95282.25;;;12.20;40.89
65800;BME280;52544;48.116;11.660;2022-12-29T13:49:05;95286.03;;;12.17;41.22
65800;BME280;52544;48.116;11.660;2022-12-29T13:51:33;95296.97;;;12.05;40.64
65800;BME280;52544;48.116;11.660;2022-12-29T13:54:17;95292.84;;;11.92;41.70
65800;BME280;52544;48.116;11.660;2022-12-29T14:04:58;95306.47;;;11.60;42.01
65800;BME280;52544;48.116;11.660;2022-12-29T14:07:24;95304.38;;;11.54;42.09
65800;BME280;52544;48.116;11.660;2022-12-29T14:09:55;95299.94;;;11.45;42.44
65800;BME280;52544;48.116;11.660;2022-12-29T14:12:31;95304.97;;;11.38;42.70
65800;BME280;52544;48.116;11.660;2022-12-29T14:17:36;95310.03;;;11.32;42.94
65800;BME280;52544;48.116;11.660;2022-12-29T14:20:03;95309.63;;;11.26;43.78
65800;BME280;52544;48.116;11.660;2022-12-29T14:22:32;95309.50;;;11.18;43.92
65800;BME280;52544;48.116;11.660;2022-12-29T14:24:58;95305.56;;;11.13;44.01
65800;BME280;52544;48.116;11.660;2022-12-29T14:29:52;95297.53;;;11.05;42.68
65800;BME280;52544;48.116;11.660;2022-12-29T14:34:50;95312.13;;;10.99;43.58
65800;BME280;52544;48.116;11.660;2022-12-29T14:37:31;95308.09;;;10.95;43.24
65800;BME280;52544;48.116;11.660;2022-12-29T14:42:46;95314.22;;;10.86;43.64
65800;BME280;52544;48.116;11.660;2022-12-29T14:47:43;95310.88;;;10.74;44.23
65800;BME280;52544;48.116;11.660;2022-12-29T14:52:50;95304.75;;;10.64;44.48
65800;BME280;52544;48.116;11.660;2022-12-29T14:57:51;95317.41;;;10.50;45.00
65800;BME280;52544;48.116;11.660;2022-12-29T15:00:29;95310.16;;;10.43;45.06
65800;BME280;52544;48.116;11.660;2022-12-29T15:03:10;95302.50;;;10.40;45.18
65800;BME280;52544;48.116;11.660;2022-12-29T15:05:46;95323.50;;;10.32;45.63
65800;BME280;52544;48.116;11.660;2022-12-29T15:08:20;95318.00;;;10.23;46.09
65800;BME280;52544;48.116;11.660;2022-12-29T15:11:12;95314.81;;;10.20;46.20
65800;BME280;52544;48.116;11.660;2022-12-29T15:13:41;95323.16;;;10.15;46.18
65800;BME280;52544;48.116;11.660;2022-12-29T15:16:31;95327.31;;;10.08;46.38